sensor_id;sensor_type;location;lat;lon;timestamp;P1;durP1;ratioP1;P2;durP2;ratioP2
10939;SDS011;5522;42.696;23.494;2023-02-28T00:01:31;25.17;;;14.15;;
10939;SDS011;5522;42.696;23.494;2023-02-28T00:03:59;25.65;;;14.32;;
10939;SDS011;5522;42.696;23.494;2023-02-28T00:06:26;28.52;;;15.07;;
10939;SDS011;5522;42.696;23.494;2023-02-28T00:08:53;26.00;;;15.15;;
10939;SDS011;5522;42.696;23.494;2023-02-28T00:11:21;25.95;;;14.75;;
10939;SDS011;5522;42.696;23.494;2023-02-28T00:13:48;32.45;;;16.83;;
10939;SDS011;5522;42.696;23.494;2023-02-28T00:16:16;27.98;;;15.60;;
10939;SDS011;5522;42.696;23.494;2023-02-28T00:18:45;27.45;;;16.00;;
10939;SDS011;5522;42.696;23.494;2023-02-28T00:21:13;25.95;;;14.25;;
10939;SDS011;5522;42.696;23.494;2023-02-28T00:23:41;28.25;;;15.02;;
10939;SDS011;5522;42.696;23.494;2023-02-28T00:26:08;23.88;;;13.73;;
10939;SDS011;5522;42.696;23.494;2023-02-28T00:28:37;26.38;;;14.07;;
10939;SDS011;5522;42.696;23.494;2023-02-28T00:31:04;29.48;;;16.20;;
10939;SDS011;5522;42.696;23.494;2023-02-28T00:33:31;27.33;;;14.52;;
10939;SDS011;5522;42.696;23.494;2023-02-28T00:36:01;24.50;;;14.52;;
10939;SDS011;5522;42.696;23.494;2023-02-28T00:38:32;22.75;;;14.52;;
10939;SDS011;5522;42.696;23.494;2023-02-28T00:40:59;27.35;;;15.65;;
10939;SDS011;5522;42.696;23.494;2023-02-28T00:43:29;27.33;;;14.75;;
10939;SDS011;5522;42.696;23.494;2023-02-28T00:45:59;24.48;;;14.85;;
10939;SDS011;5522;42.696;23.494;2023-02-28T00:48:25;23.73;;;15.02;;
10939;SDS011;5522;42.696;23.494;2023-02-28T00:50:53;24.05;;;13.70;;
10939;SDS011;5522;42.696;23.494;2023-02-28T00:53:20;24.98;;;14.35;;
10939;SDS011;5522;42.696;23.494;2023-02-28T00:55:48;24.70;;;14.07;;
10939;SDS011;5522;42.696;23.494;2023-02-28T00:58:15;24.98;;;15.07;;
10939;SDS011;5522;42.696;23.494;2023-02-28T01:05:54;23.50;;;14.30;;
10939;SDS011;5522;42.696;23.494;2023-02-28T01:08:21;28.20;;;14.38;;
10939;SDS011;5522;42.696;23.494;2023-02-28T01:10:48;28.40;;;17.38;;
10939;SDS011;5522;42.696;23.494;2023-02-28T01:13:16;30.80;;;17.27;;
10939;SDS011;5522;42.696;23.494;2023-02-28T01:15:43;24.55;;;15.95;;
10939;SDS011;5522;42.696;23.494;2023-02-28T01:18:14;24.77;;;14.75;;
10939;SDS011;5522;42.696;23.494;2023-02-28T01:20:41;23.85;;;15.32;;
10939;SDS011;5522;42.696;23.494;2023-02-28T01:23:10;19.10;;;13.27;;
10939;SDS011;5522;42.696;23.494;2023-02-28T01:25:37;25.02;;;15.15;;
10939;SDS011;5522;42.696;23.494;2023-02-28T01:28:04;26.35;;;17.13;;
10939;SDS011;5522;42.696;23.494;2023-02-28T01:30:31;30.52;;;17.33;;
10939;SDS011;5522;42.696;23.494;2023-02-28T01:32:59;27.58;;;16.77;;
10939;SDS011;5522;42.696;23.494;2023-02-28T01:35:26;25.40;;;16.83;;
10939;SDS011;5522;42.696;23.494;2023-02-28T01:37:52;32.00;;;20.60;;
10939;SDS011;5522;42.696;23.494;2023-02-28T01:40:21;35.92;;;24.92;;
10939;SDS011;5522;42.696;23.494;2023-02-28T01:42:48;31.95;;;18.20;;
10939;SDS011;5522;42.696;23.494;2023-02-28T01:45:18;31.88;;;16.95;;
10939;SDS011;5522;42.696;23.494;2023-02-28T01:47:50;24.10;;;13.13;;
10939;SDS011;5522;42.696;23.494;2023-02-28T01:50:22;22.27;;;12.88;;
10939;SDS011;5522;42.696;23.494;2023-02-28T01:52:51;21.33;;;11.82;;
10939;SDS011;5522;42.696;23.494;2023-02-28T01:55:25;22.75;;;12.43;;
10939;SDS011;5522;42.696;23.494;2023-02-28T01:57:55;20.10;;;11.88;;
10939;SDS011;5522;42.696;23.494;2023-02-28T02:00:24;17.73;;;10.90;;
10939;SDS011;5522;42.696;23.494;2023-02-28T02:02:50;16.98;;;11.45;;
10939;SDS011;5522;42.696;23.494;2023-02-28T02:05:20;18.35;;;10.65;;
10939;SDS011;5522;42.696;23.494;2023-02-28T02:07:50;16.70;;;10.27;;
10939;SDS011;5522;42.696;23.494;2023-02-28T02:10:21;18.15;;;11.95;;
10939;SDS011;5522;42.696;23.494;2023-02-28T02:12:58;17.48;;;10.85;;
10939;SDS011;5522;42.696;23.494;2023-02-28T02:15:34;23.50;;;13.30;;
10939;SDS011;5522;42.696;23.494;2023-02-28T02:18:09;24.25;;;15.02;;
10939;SDS011;5522;42.696;23.494;2023-02-28T02:23:48;28.40;;;18.15;;
10939;SDS011;5522;42.696;23.494;2023-02-28T02:26:48;31.52;;;20.95;;
10939;SDS011;5522;42.696;23.494;2023-02-28T02:29:33;38.85;;;23.42;;
10939;SDS011;5522;42.696;23.494;2023-02-28T02:32:19;33.05;;;20.05;;
10939;SDS011;5522;42.696;23.494;2023-02-28T02:35:00;31.65;;;20.63;;
10939;SDS011;5522;42.696;23.494;2023-02-28T02:37:34;36.60;;;21.60;;
10939;SDS011;5522;42.696;23.494;2023-02-28T02:40:09;31.08;;;21.50;;
10939;SDS011;5522;42.696;23.494;2023-02-28T02:42:41;24.98;;;15.15;;
10939;SDS011;5522;42.696;23.494;2023-02-28T02:45:16;19.80;;;13.77;;
10939;SDS011;5522;42.696;23.494;2023-02-28T02:47:48;20.52;;;13.32;;
10939;SDS011;5522;42.696;23.494;2023-02-28T02:50:20;35.20;;;16.90;;
10939;SDS011;5522;42.696;23.494;2023-02-28T02:52:51;107.32;;;17.98;;
10939;SDS011;5522;42.696;23.494;2023-02-28T02:55:22;94.43;;;13.55;;
10939;SDS011;5522;42.696;23.494;2023-02-28T02:57:50;88.20;;;20.73;;
10939;SDS011;5522;42.696;23.494;2023-02-28T03:00:22;61.45;;;14.02;;
10939;SDS011;5522;42.696;23.494;2023-02-28T03:02:53;62.60;;;15.48;;
10939;SDS011;5522;42.696;23.494;2023-02-28T03:05:25;195.60;;;19.98;;
10939;SDS011;5522;42.696;23.494;2023-02-28T03:07:53;208.02;;;22.38;;
10939;SDS011;5522;42.696;23.494;2023-02-28T03:10:30;84.57;;;19.50;;
10939;SDS011;5522;42.696;23.494;2023-02-28T03:13:04;116.40;;;18.27;;
10939;SDS011;5522;42.696;23.494;2023-02-28T03:15:57;87.22;;;16.70;;
10939;SDS011;5522;42.696;23.494;2023-02-28T03:18:31;92.88;;;17.48;;
10939;SDS011;5522;42.696;23.494;2023-02-28T03:21:09;90.68;;;14.13;;
10939;SDS011;5522;42.696;23.494;2023-02-28T03:23:44;64.00;;;13.25;;
10939;SDS011;5522;42.696;23.494;2023-02-28T03:26:18;54.15;;;15.82;;
10939;SDS011;5522;42.696;23.494;2023-02-28T03:28:50;69.82;;;12.95;;
10939;SDS011;5522;42.696;23.494;2023-02-28T03:31:25;62.28;;;12.75;;
10939;SDS011;5522;42.696;23.494;2023-02-28T03:33:58;111.05;;;18.10;;
10939;SDS011;5522;42.696;23.494;2023-02-28T03:36:30;151.30;;;17.20;;
10939;SDS011;5522;42.696;23.494;2023-02-28T03:39:09;124.32;;;15.18;;
10939;SDS011;5522;42.696;23.494;2023-02-28T03:41:42;143.27;;;17.50;;
10939;SDS011;5522;42.696;23.494;2023-02-28T03:44:13;276.85;;;19.38;;
10939;SDS011;5522;42.696;23.494;2023-02-28T03:46:44;121.43;;;15.68;;
10939;SDS011;5522;42.696;23.494;2023-02-28T03:49:15;117.63;;;14.00;;
10939;SDS011;5522;42.696;23.494;2023-02-28T03:51:46;108.82;;;14.35;;
10939;SDS011;5522;42.696;23.494;2023-02-28T03:54:18;233.00;;;18.17;;
10939;SDS011;5522;42.696;23.494;2023-02-28T03:56:48;187.27;;;23.73;;
10939;SDS011;5522;42.696;23.494;2023-02-28T03:59:21;114.88;;;25.60;;
10939;SDS011;5522;42.696;23.494;2023-02-28T04:01:52;148.27;;;18.67;;
10939;SDS011;5522;42.696;23.494;2023-02-28T04:04:20;108.72;;;23.48;;
10939;SDS011;5522;42.696;23.494;2023-02-28T04:06:50;147.35;;;22.77;;
10939;SDS011;5522;42.696;23.494;2023-02-28T04:09:18;144.73;;;22.70;;
10939;SDS011;5522;42.696;23.494;2023-02-28T04:11:45;148.55;;;18.63;;
10939;SDS011;5522;42.696;23.494;2023-02-28T04:14:17;191.95;;;18.30;;
10939;SDS011;5522;42.696;23.494;2023-02-28T04:16:45;164.60;;;21.27;;
10939;SDS011;5522;42.696;23.494;2023-02-28T04:19:12;139.50;;;21.45;;
10939;SDS011;5522;42.696;23.494;2023-02-28T04:21:40;76.32;;;12.85;;
10939;SDS011;5522;42.696;23.494;2023-02-28T04:24:12;160.80;;;17.80;;
10939;SDS011;5522;42.696;23.494;2023-02-28T04:26:40;149.88;;;17.35;;
10939;SDS011;5522;42.696;23.494;2023-02-28T04:29:09;150.75;;;16.63;;
10939;SDS011;5522;42.696;23.494;2023-02-28T04:31:37;84.72;;;13.57;;
10939;SDS011;5522;42.696;23.494;2023-02-28T04:34:04;277.42;;;20.42;;
10939;SDS011;5522;42.696;23.494;2023-02-28T04:36:32;171.80;;;18.05;;
10939;SDS011;5522;42.696;23.494;2023-02-28T04:38:59;270.95;;;19.83;;
10939;SDS011;5522;42.696;23.494;2023-02-28T04:41:27;112.80;;;16.52;;
10939;SDS011;5522;42.696;23.494;2023-02-28T04:43:54;68.60;;;18.20;;
10939;SDS011;5522;42.696;23.494;2023-02-28T04:46:21;108.93;;;23.35;;
10939;SDS011;5522;42.696;23.494;2023-02-28T04:48:48;89.70;;;23.30;;
10939;SDS011;5522;42.696;23.494;2023-02-28T04:51:16;74.22;;;18.35;;
10939;SDS011;5522;42.696;23.494;2023-02-28T04:53:44;93.18;;;16.75;;
10939;SDS011;5522;42.696;23.494;2023-02-28T04:56:11;39.28;;;14.55;;
10939;SDS011;5522;42.696;23.494;2023-02-28T04:58:41;67.18;;;14.02;;
10939;SDS011;5522;42.696;23.494;2023-02-28T05:01:15;44.10;;;12.45;;
10939;SDS011;5522;42.696;23.494;2023-02-28T05:03:44;85.88;;;12.45;;
10939;SDS011;5522;42.696;23.494;2023-02-28T05:06:12;113.68;;;13.57;;
10939;SDS011;5522;42.696;23.494;2023-02-28T05:08:39;58.50;;;11.40;;
10939;SDS011;5522;42.696;23.494;2023-02-28T05:11:06;166.95;;;15.63;;
10939;SDS011;5522;42.696;23.494;2023-02-28T05:13:38;174.30;;;18.52;;
10939;SDS011;5522;42.696;23.494;2023-02-28T05:16:07;177.27;;;19.40;;
10939;SDS011;5522;42.696;23.494;2023-02-28T05:18:34;94.88;;;15.00;;
10939;SDS011;5522;42.696;23.494;2023-02-28T05:21:00;135.00;;;26.00;;
10939;SDS011;5522;42.696;23.494;2023-02-28T05:23:28;77.97;;;21.30;;
10939;SDS011;5522;42.696;23.494;2023-02-28T05:25:55;108.45;;;25.48;;
10939;SDS011;5522;42.696;23.494;2023-02-28T05:28:22;78.00;;;22.52;;
10939;SDS011;5522;42.696;23.494;2023-02-28T05:30:49;69.03;;;17.88;;
10939;SDS011;5522;42.696;23.494;2023-02-28T05:33:17;64.95;;;16.77;;
10939;SDS011;5522;42.696;23.494;2023-02-28T05:35:44;109.47;;;20.00;;
10939;SDS011;5522;42.696;23.494;2023-02-28T05:38:11;69.03;;;20.63;;
10939;SDS011;5522;42.696;23.494;2023-02-28T05:40:38;61.30;;;18.92;;
10939;SDS011;5522;42.696;23.494;2023-02-28T05:43:05;71.10;;;19.10;;
10939;SDS011;5522;42.696;23.494;2023-02-28T05:45:32;76.78;;;26.95;;
10939;SDS011;5522;42.696;23.494;2023-02-28T05:47:59;75.75;;;17.40;;
10939;SDS011;5522;42.696;23.494;2023-02-28T05:50:27;50.97;;;21.48;;
10939;SDS011;5522;42.696;23.494;2023-02-28T05:52:54;54.00;;;19.42;;
10939;SDS011;5522;42.696;23.494;2023-02-28T05:55:20;36.13;;;18.55;;
10939;SDS011;5522;42.696;23.494;2023-02-28T05:57:47;69.63;;;23.10;;
10939;SDS011;5522;42.696;23.494;2023-02-28T06:00:14;33.72;;;19.02;;
10939;SDS011;5522;42.696;23.494;2023-02-28T06:02:42;33.95;;;18.30;;
10939;SDS011;5522;42.696;23.494;2023-02-28T06:05:11;36.33;;;17.75;;
10939;SDS011;5522;42.696;23.494;2023-02-28T06:07:41;37.92;;;19.38;;
10939;SDS011;5522;42.696;23.494;2023-02-28T06:10:09;31.10;;;19.38;;
10939;SDS011;5522;42.696;23.494;2023-02-28T06:12:37;39.15;;;21.23;;
10939;SDS011;5522;42.696;23.494;2023-02-28T06:15:04;133.52;;;63.00;;
10939;SDS011;5522;42.696;23.494;2023-02-28T06:17:31;45.63;;;26.77;;
10939;SDS011;5522;42.696;23.494;2023-02-28T06:19:58;36.28;;;20.65;;
10939;SDS011;5522;42.696;23.494;2023-02-28T06:22:25;36.08;;;18.23;;
10939;SDS011;5522;42.696;23.494;2023-02-28T06:24:53;34.40;;;17.92;;
10939;SDS011;5522;42.696;23.494;2023-02-28T06:27:22;40.85;;;18.08;;
10939;SDS011;5522;42.696;23.494;2023-02-28T06:29:48;36.28;;;18.65;;
10939;SDS011;5522;42.696;23.494;2023-02-28T06:32:19;37.97;;;18.60;;
10939;SDS011;5522;42.696;23.494;2023-02-28T06:34:46;33.67;;;18.02;;
10939;SDS011;5522;42.696;23.494;2023-02-28T06:37:13;34.67;;;19.75;;
10939;SDS011;5522;42.696;23.494;2023-02-28T06:39:40;40.40;;;22.52;;
10939;SDS011;5522;42.696;23.494;2023-02-28T06:42:08;34.40;;;21.55;;
10939;SDS011;5522;42.696;23.494;2023-02-28T06:44:35;39.58;;;24.63;;
10939;SDS011;5522;42.696;23.494;2023-02-28T06:47:02;39.92;;;22.33;;
10939;SDS011;5522;42.696;23.494;2023-02-28T06:49:31;40.67;;;23.65;;
10939;SDS011;5522;42.696;23.494;2023-02-28T06:51:58;45.38;;;28.13;;
10939;SDS011;5522;42.696;23.494;2023-02-28T06:54:25;34.42;;;21.10;;
10939;SDS011;5522;42.696;23.494;2023-02-28T06:56:52;41.65;;;22.83;;
10939;SDS011;5522;42.696;23.494;2023-02-28T06:59:21;35.78;;;20.52;;
10939;SDS011;5522;42.696;23.494;2023-02-28T07:01:48;38.75;;;20.83;;
10939;SDS011;5522;42.696;23.494;2023-02-28T07:04:15;40.63;;;21.42;;
10939;SDS011;5522;42.696;23.494;2023-02-28T07:06:41;37.55;;;20.30;;
10939;SDS011;5522;42.696;23.494;2023-02-28T07:09:08;43.40;;;21.02;;
10939;SDS011;5522;42.696;23.494;2023-02-28T07:11:35;38.95;;;20.38;;
10939;SDS011;5522;42.696;23.494;2023-02-28T07:14:02;39.88;;;21.92;;
10939;SDS011;5522;42.696;23.494;2023-02-28T07:16:30;44.92;;;23.55;;
10939;SDS011;5522;42.696;23.494;2023-02-28T07:18:57;37.97;;;21.13;;
10939;SDS011;5522;42.696;23.494;2023-02-28T07:21:24;38.75;;;21.67;;
10939;SDS011;5522;42.696;23.494;2023-02-28T07:23:51;39.67;;;20.42;;
10939;SDS011;5522;42.696;23.494;2023-02-28T07:26:18;34.85;;;19.50;;
10939;SDS011;5522;42.696;23.494;2023-02-28T07:28:47;38.95;;;21.95;;
10939;SDS011;5522;42.696;23.494;2023-02-28T07:31:14;38.75;;;20.38;;
10939;SDS011;5522;42.696;23.494;2023-02-28T07:33:43;48.65;;;21.52;;
10939;SDS011;5522;42.696;23.494;2023-02-28T07:36:11;37.17;;;19.77;;
10939;SDS011;5522;42.696;23.494;2023-02-28T07:38:40;40.83;;;20.63;;
10939;SDS011;5522;42.696;23.494;2023-02-28T07:41:08;49.10;;;22.25;;
10939;SDS011;5522;42.696;23.494;2023-02-28T07:43:35;39.10;;;21.92;;
10939;SDS011;5522;42.696;23.494;2023-02-28T07:46:03;42.08;;;23.85;;
10939;SDS011;5522;42.696;23.494;2023-02-28T07:48:30;54.80;;;23.00;;
10939;SDS011;5522;42.696;23.494;2023-02-28T07:50:59;47.70;;;24.70;;
10939;SDS011;5522;42.696;23.494;2023-02-28T07:53:26;49.85;;;23.17;;
10939;SDS011;5522;42.696;23.494;2023-02-28T07:55:54;44.63;;;22.50;;
10939;SDS011;5522;42.696;23.494;2023-02-28T07:58:22;43.05;;;19.48;;
10939;SDS011;5522;42.696;23.494;2023-02-28T08:00:49;41.30;;;20.63;;
10939;SDS011;5522;42.696;23.494;2023-02-28T08:03:17;45.15;;;20.10;;
10939;SDS011;5522;42.696;23.494;2023-02-28T08:05:44;38.72;;;19.15;;
10939;SDS011;5522;42.696;23.494;2023-02-28T08:08:13;33.85;;;17.77;;
10939;SDS011;5522;42.696;23.494;2023-02-28T08:10:40;37.42;;;20.33;;
10939;SDS011;5522;42.696;23.494;2023-02-28T08:13:07;33.92;;;19.08;;
10939;SDS011;5522;42.696;23.494;2023-02-28T08:15:34;38.15;;;18.25;;
10939;SDS011;5522;42.696;23.494;2023-02-28T08:18:01;38.22;;;17.85;;
10939;SDS011;5522;42.696;23.494;2023-02-28T08:20:28;31.25;;;16.98;;
10939;SDS011;5522;42.696;23.494;2023-02-28T08:22:55;34.17;;;18.67;;
10939;SDS011;5522;42.696;23.494;2023-02-28T08:25:24;35.90;;;18.05;;
10939;SDS011;5522;42.696;23.494;2023-02-28T08:27:50;31.48;;;19.25;;
10939;SDS011;5522;42.696;23.494;2023-02-28T08:30:18;36.45;;;19.92;;
10939;SDS011;5522;42.696;23.494;2023-02-28T08:32:45;38.38;;;18.65;;
10939;SDS011;5522;42.696;23.494;2023-02-28T08:35:11;40.53;;;18.95;;
10939;SDS011;5522;42.696;23.494;2023-02-28T08:37:38;32.30;;;18.58;;
10939;SDS011;5522;42.696;23.494;2023-02-28T08:40:05;35.10;;;20.35;;
10939;SDS011;5522;42.696;23.494;2023-02-28T08:42:35;31.70;;;17.23;;
10939;SDS011;5522;42.696;23.494;2023-02-28T08:45:02;29.85;;;17.98;;
10939;SDS011;5522;42.696;23.494;2023-02-28T08:47:29;24.90;;;15.10;;
10939;SDS011;5522;42.696;23.494;2023-02-28T08:49:56;27.95;;;15.80;;
10939;SDS011;5522;42.696;23.494;2023-02-28T08:52:23;22.02;;;13.63;;
10939;SDS011;5522;42.696;23.494;2023-02-28T08:54:49;22.45;;;14.10;;
10939;SDS011;5522;42.696;23.494;2023-02-28T08:57:16;19.58;;;10.73;;
10939;SDS011;5522;42.696;23.494;2023-02-28T08:59:44;21.38;;;12.35;;
10939;SDS011;5522;42.696;23.494;2023-02-28T09:02:12;18.75;;;13.13;;
10939;SDS011;5522;42.696;23.494;2023-02-28T09:04:39;26.88;;;12.00;;
10939;SDS011;5522;42.696;23.494;2023-02-28T09:07:06;20.58;;;11.88;;
10939;SDS011;5522;42.696;23.494;2023-02-28T09:09:33;18.98;;;12.73;;
10939;SDS011;5522;42.696;23.494;2023-02-28T09:12:00;19.05;;;12.30;;
10939;SDS011;5522;42.696;23.494;2023-02-28T09:14:27;22.83;;;11.20;;
10939;SDS011;5522;42.696;23.494;2023-02-28T09:16:56;15.98;;;9.65;;
10939;SDS011;5522;42.696;23.494;2023-02-28T09:19:23;18.58;;;10.43;;
10939;SDS011;5522;42.696;23.494;2023-02-28T09:21:49;14.30;;;9.05;;
10939;SDS011;5522;42.696;23.494;2023-02-28T09:24:17;16.27;;;9.95;;
10939;SDS011;5522;42.696;23.494;2023-02-28T09:26:45;21.02;;;10.27;;
10939;SDS011;5522;42.696;23.494;2023-02-28T09:29:12;16.05;;;8.75;;
10939;SDS011;5522;42.696;23.494;2023-02-28T09:31:39;16.33;;;9.30;;
10939;SDS011;5522;42.696;23.494;2023-02-28T09:34:07;15.63;;;8.98;;
10939;SDS011;5522;42.696;23.494;2023-02-28T09:36:34;18.60;;;9.18;;
10939;SDS011;5522;42.696;23.494;2023-02-28T09:39:03;12.80;;;8.95;;
10939;SDS011;5522;42.696;23.494;2023-02-28T09:41:32;14.85;;;8.65;;
10939;SDS011;5522;42.696;23.494;2023-02-28T09:44:15;15.43;;;8.50;;
10939;SDS011;5522;42.696;23.494;2023-02-28T09:46:47;14.50;;;9.30;;
10939;SDS011;5522;42.696;23.494;2023-02-28T09:49:19;15.30;;;8.63;;
10939;SDS011;5522;42.696;23.494;2023-02-28T09:51:50;18.08;;;9.45;;
10939;SDS011;5522;42.696;23.494;2023-02-28T09:54:24;16.92;;;10.48;;
10939;SDS011;5522;42.696;23.494;2023-02-28T09:56:55;14.85;;;9.32;;
10939;SDS011;5522;42.696;23.494;2023-02-28T09:59:33;15.15;;;8.85;;
10939;SDS011;5522;42.696;23.494;2023-02-28T10:02:10;15.75;;;8.85;;
10939;SDS011;5522;42.696;23.494;2023-02-28T10:04:48;16.50;;;8.70;;
10939;SDS011;5522;42.696;23.494;2023-02-28T10:07:22;17.27;;;9.00;;
10939;SDS011;5522;42.696;23.494;2023-02-28T10:10:02;12.65;;;8.25;;
10939;SDS011;5522;42.696;23.494;2023-02-28T10:12:37;19.35;;;9.27;;
10939;SDS011;5522;42.696;23.494;2023-02-28T10:15:12;12.27;;;8.77;;
10939;SDS011;5522;42.696;23.494;2023-02-28T10:17:42;13.38;;;9.13;;
10939;SDS011;5522;42.696;23.494;2023-02-28T10:20:15;21.30;;;9.10;;
10939;SDS011;5522;42.696;23.494;2023-02-28T10:22:50;16.15;;;9.63;;
10939;SDS011;5522;42.696;23.494;2023-02-28T10:25:20;17.40;;;10.27;;
10939;SDS011;5522;42.696;23.494;2023-02-28T10:27:49;15.43;;;10.15;;
10939;SDS011;5522;42.696;23.494;2023-02-28T10:30:19;20.05;;;10.25;;
10939;SDS011;5522;42.696;23.494;2023-02-28T10:32:47;16.60;;;10.07;;
10939;SDS011;5522;42.696;23.494;2023-02-28T10:35:20;15.63;;;9.93;;
10939;SDS011;5522;42.696;23.494;2023-02-28T10:37:49;14.40;;;10.23;;
10939;SDS011;5522;42.696;23.494;2023-02-28T10:40:31;20.83;;;11.52;;
10939;SDS011;5522;42.696;23.494;2023-02-28T10:43:01;18.65;;;10.93;;
10939;SDS011;5522;42.696;23.494;2023-02-28T10:45:30;19.67;;;11.02;;
10939;SDS011;5522;42.696;23.494;2023-02-28T10:47:59;19.23;;;11.57;;
10939;SDS011;5522;42.696;23.494;2023-02-28T10:50:32;24.17;;;11.68;;
10939;SDS011;5522;42.696;23.494;2023-02-28T10:55:58;19.25;;;11.20;;
10939;SDS011;5522;42.696;23.494;2023-02-28T10:58:27;19.33;;;11.13;;
10939;SDS011;5522;42.696;23.494;2023-02-28T11:00:56;20.05;;;11.88;;
10939;SDS011;5522;42.696;23.494;2023-02-28T11:03:27;24.30;;;11.88;;
10939;SDS011;5522;42.696;23.494;2023-02-28T11:06:03;24.45;;;12.23;;
10939;SDS011;5522;42.696;23.494;2023-02-28T11:08:33;20.98;;;10.77;;
10939;SDS011;5522;42.696;23.494;2023-02-28T11:11:01;21.40;;;12.60;;
10939;SDS011;5522;42.696;23.494;2023-02-28T11:13:32;19.20;;;11.52;;
10939;SDS011;5522;42.696;23.494;2023-02-28T11:16:03;20.70;;;11.18;;
10939;SDS011;5522;42.696;23.494;2023-02-28T11:18:34;17.60;;;11.10;;
10939;SDS011;5522;42.696;23.494;2023-02-28T11:21:08;23.58;;;13.15;;
10939;SDS011;5522;42.696;23.494;2023-02-28T11:23:41;23.10;;;11.68;;
10939;SDS011;5522;42.696;23.494;2023-02-28T11:26:09;26.20;;;12.95;;
10939;SDS011;5522;42.696;23.494;2023-02-28T11:28:37;27.25;;;11.52;;
10939;SDS011;5522;42.696;23.494;2023-02-28T11:31:08;20.70;;;12.70;;
10939;SDS011;5522;42.696;23.494;2023-02-28T11:33:44;26.85;;;11.70;;
10939;SDS011;5522;42.696;23.494;2023-02-28T11:36:18;22.05;;;10.68;;
10939;SDS011;5522;42.696;23.494;2023-02-28T11:38:49;19.50;;;10.88;;
10939;SDS011;5522;42.696;23.494;2023-02-28T11:41:29;20.45;;;10.98;;
10939;SDS011;5522;42.696;23.494;2023-02-28T11:44:26;16.55;;;10.00;;
10939;SDS011;5522;42.696;23.494;2023-02-28T11:47:04;15.50;;;9.95;;
10939;SDS011;5522;42.696;23.494;2023-02-28T11:49:43;18.27;;;8.45;;
10939;SDS011;5522;42.696;23.494;2023-02-28T11:52:29;20.85;;;9.35;;
10939;SDS011;5522;42.696;23.494;2023-02-28T11:55:11;15.98;;;10.00;;
10939;SDS011;5522;42.696;23.494;2023-02-28T12:00:46;15.40;;;9.68;;
10939;SDS011;5522;42.696;23.494;2023-02-28T12:03:27;18.23;;;9.52;;
10939;SDS011;5522;42.696;23.494;2023-02-28T12:06:01;19.10;;;9.38;;
10939;SDS011;5522;42.696;23.494;2023-02-28T12:08:44;15.93;;;7.15;;
10939;SDS011;5522;42.696;23.494;2023-02-28T12:11:27;14.25;;;7.43;;
10939;SDS011;5522;42.696;23.494;2023-02-28T12:17:12;20.05;;;9.88;;
10939;SDS011;5522;42.696;23.494;2023-02-28T12:19:48;20.35;;;9.95;;
10939;SDS011;5522;42.696;23.494;2023-02-28T12:22:28;18.27;;;9.52;;
10939;SDS011;5522;42.696;23.494;2023-02-28T12:25:08;18.27;;;9.63;;
10939;SDS011;5522;42.696;23.494;2023-02-28T12:27:48;18.50;;;9.60;;
10939;SDS011;5522;42.696;23.494;2023-02-28T12:30:19;20.15;;;10.20;;
10939;SDS011;5522;42.696;23.494;2023-02-28T12:32:51;19.67;;;10.55;;
10939;SDS011;5522;42.696;23.494;2023-02-28T12:35:24;18.05;;;10.05;;
10939;SDS011;5522;42.696;23.494;2023-02-28T12:37:54;15.07;;;9.35;;
10939;SDS011;5522;42.696;23.494;2023-02-28T12:40:27;15.95;;;8.65;;
10939;SDS011;5522;42.696;23.494;2023-02-28T12:43:09;15.38;;;9.57;;
10939;SDS011;5522;42.696;23.494;2023-02-28T12:45:40;15.60;;;8.95;;
10939;SDS011;5522;42.696;23.494;2023-02-28T12:48:14;15.68;;;9.50;;
10939;SDS011;5522;42.696;23.494;2023-02-28T12:50:44;18.35;;;10.20;;
10939;SDS011;5522;42.696;23.494;2023-02-28T12:53:14;16.33;;;9.48;;
10939;SDS011;5522;42.696;23.494;2023-02-28T12:55:52;21.48;;;10.27;;
10939;SDS011;5522;42.696;23.494;2023-02-28T12:58:30;20.30;;;11.43;;
10939;SDS011;5522;42.696;23.494;2023-02-28T13:01:11;22.23;;;10.40;;
10939;SDS011;5522;42.696;23.494;2023-02-28T13:06:58;15.50;;;9.07;;
10939;SDS011;5522;42.696;23.494;2023-02-28T13:09:40;20.30;;;9.82;;
10939;SDS011;5522;42.696;23.494;2023-02-28T13:12:13;18.50;;;10.57;;
10939;SDS011;5522;42.696;23.494;2023-02-28T13:14:41;24.58;;;9.63;;
10939;SDS011;5522;42.696;23.494;2023-02-28T13:17:12;20.05;;;9.63;;
10939;SDS011;5522;42.696;23.494;2023-02-28T13:19:46;22.77;;;10.43;;
10939;SDS011;5522;42.696;23.494;2023-02-28T13:22:36;16.75;;;8.23;;
10939;SDS011;5522;42.696;23.494;2023-02-28T13:28:10;23.50;;;9.38;;
10939;SDS011;5522;42.696;23.494;2023-02-28T13:33:32;15.98;;;9.13;;
10939;SDS011;5522;42.696;23.494;2023-02-28T13:36:08;23.10;;;8.95;;
10939;SDS011;5522;42.696;23.494;2023-02-28T13:38:38;18.85;;;10.27;;
10939;SDS011;5522;42.696;23.494;2023-02-28T13:44:11;15.82;;;8.85;;
10939;SDS011;5522;42.696;23.494;2023-02-28T13:49:43;18.23;;;9.13;;
10939;SDS011;5522;42.696;23.494;2023-02-28T13:52:12;16.08;;;8.93;;
10939;SDS011;5522;42.696;23.494;2023-02-28T13:54:50;17.08;;;9.27;;
10939;SDS011;5522;42.696;23.494;2023-02-28T13:57:28;14.05;;;8.63;;
10939;SDS011;5522;42.696;23.494;2023-02-28T14:00:07;16.55;;;8.48;;
10939;SDS011;5522;42.696;23.494;2023-02-28T14:05:41;14.32;;;7.88;;
10939;SDS011;5522;42.696;23.494;2023-02-28T14:08:11;18.25;;;8.77;;
10939;SDS011;5522;42.696;23.494;2023-02-28T14:10:42;15.75;;;9.10;;
10939;SDS011;5522;42.696;23.494;2023-02-28T14:13:12;16.67;;;8.70;;
10939;SDS011;5522;42.696;23.494;2023-02-28T14:16:04;14.10;;;9.18;;
10939;SDS011;5522;42.696;23.494;2023-02-28T14:18:33;12.07;;;7.25;;
10939;SDS011;5522;42.696;23.494;2023-02-28T14:21:03;14.75;;;6.93;;
10939;SDS011;5522;42.696;23.494;2023-02-28T14:26:46;9.85;;;7.28;;
10939;SDS011;5522;42.696;23.494;2023-02-28T14:29:38;12.93;;;6.32;;
10939;SDS011;5522;42.696;23.494;2023-02-28T14:32:22;9.98;;;6.60;;
10939;SDS011;5522;42.696;23.494;2023-02-28T14:34:55;10.95;;;7.95;;
10939;SDS011;5522;42.696;23.494;2023-02-28T14:37:29;12.98;;;6.28;;
10939;SDS011;5522;42.696;23.494;2023-02-28T14:39:59;15.07;;;8.55;;
10939;SDS011;5522;42.696;23.494;2023-02-28T14:42:30;10.55;;;7.28;;
10939;SDS011;5522;42.696;23.494;2023-02-28T14:44:59;7.47;;;6.30;;
10939;SDS011;5522;42.696;23.494;2023-02-28T14:47:28;16.75;;;7.28;;
10939;SDS011;5522;42.696;23.494;2023-02-28T14:49:58;15.75;;;9.25;;
10939;SDS011;5522;42.696;23.494;2023-02-28T14:52:27;12.10;;;6.63;;
10939;SDS011;5522;42.696;23.494;2023-02-28T14:54:56;10.93;;;6.18;;
10939;SDS011;5522;42.696;23.494;2023-02-28T14:57:26;9.90;;;7.80;;
10939;SDS011;5522;42.696;23.494;2023-02-28T14:59:57;12.05;;;7.72;;
10939;SDS011;5522;42.696;23.494;2023-02-28T15:02:30;10.07;;;6.93;;
10939;SDS011;5522;42.696;23.494;2023-02-28T15:05:02;11.55;;;7.20;;
10939;SDS011;5522;42.696;23.494;2023-02-28T15:07:42;17.17;;;10.93;;
10939;SDS011;5522;42.696;23.494;2023-02-28T15:10:16;8.60;;;7.07;;
10939;SDS011;5522;42.696;23.494;2023-02-28T15:12:48;13.63;;;10.00;;
10939;SDS011;5522;42.696;23.494;2023-02-28T15:15:18;8.18;;;6.53;;
10939;SDS011;5522;42.696;23.494;2023-02-28T15:17:49;11.90;;;7.78;;
10939;SDS011;5522;42.696;23.494;2023-02-28T15:20:21;10.45;;;8.40;;
10939;SDS011;5522;42.696;23.494;2023-02-28T15:22:49;13.90;;;6.97;;